createdAt,value
2019-03-10T00:01:32.740Z,5.20
2019-03-10T00:03:40.142Z,4.80
2019-03-10T00:05:47.529Z,5.37
2019-03-10T00:07:55.080Z,5.00
2019-03-10T00:10:02.473Z,4.90
2019-03-10T00:12:09.911Z,5.03
2019-03-10T00:14:17.466Z,4.67
2019-03-10T00:16:24.977Z,3.97
2019-03-10T00:18:32.335Z,4.67
2019-03-10T00:20:39.787Z,4.50
2019-03-10T00:22:47.242Z,4.53
2019-03-10T00:24:54.741Z,4.30
2019-03-10T00:27:02.110Z,4.13
2019-03-10T00:29:09.707Z,4.20
2019-03-10T00:31:17.032Z,3.90
2019-03-10T00:33:24.357Z,3.90
2019-03-10T00:35:31.843Z,4.67
2019-03-10T00:37:39.301Z,4.07
2019-03-10T00:40:38.900Z,3.73
2019-03-10T00:43:43.511Z,4.73
2019-03-10T00:46:48.777Z,3.90
2019-03-10T00:50:22.393Z,4.37
2019-03-10T00:53:01.829Z,4.00
2019-03-10T00:55:09.371Z,3.90
2019-03-10T00:57:16.800Z,3.80
2019-03-10T00:59:24.199Z,3.90
2019-03-10T01:01:31.716Z,3.93
2019-03-10T01:03:39.086Z,4.20
2019-03-10T01:05:46.443Z,3.77
2019-03-10T01:07:53.731Z,3.50
2019-03-10T01:10:01.133Z,3.57
2019-03-10T01:12:09.468Z,3.60
2019-03-10T01:14:16.957Z,3.43
2019-03-10T01:16:25.587Z,2.90
2019-03-10T01:18:34.528Z,2.50
2019-03-10T01:20:41.882Z,2.63
2019-03-10T01:22:49.179Z,3.37
2019-03-10T01:24:56.507Z,2.80
2019-03-10T01:27:03.836Z,2.60
2019-03-10T01:29:11.150Z,2.80
2019-03-10T01:31:31.823Z,2.50
2019-03-10T01:34:33.765Z,3.20
2019-03-10T01:36:41.138Z,3.23
2019-03-10T01:38:48.453Z,2.77
2019-03-10T01:40:55.719Z,3.00
2019-03-10T01:43:03.088Z,3.23
2019-03-10T01:45:12.678Z,3.03
2019-03-10T01:47:19.967Z,2.60
2019-03-10T01:49:27.370Z,2.67
2019-03-10T01:51:34.650Z,2.10
2019-03-10T01:53:42.013Z,2.30
2019-03-10T01:55:49.380Z,2.20
2019-03-10T01:57:56.794Z,2.00
2019-03-10T02:00:04.118Z,2.70
2019-03-10T02:02:11.497Z,2.57
2019-03-10T02:04:18.994Z,2.70
2019-03-10T02:06:26.377Z,2.70
2019-03-10T02:08:33.711Z,2.90
2019-03-10T02:10:41.121Z,3.00
2019-03-10T02:12:48.523Z,3.00
2019-03-10T02:14:55.876Z,2.93
2019-03-10T02:17:03.161Z,3.20
2019-03-10T02:19:10.576Z,3.30
2019-03-10T02:21:17.918Z,3.53
2019-03-10T02:23:25.260Z,3.67
2019-03-10T02:25:32.724Z,3.47
2019-03-10T02:27:40.200Z,3.13
2019-03-10T02:29:47.581Z,3.10
2019-03-10T02:31:54.917Z,3.20
2019-03-10T02:34:02.213Z,3.73
2019-03-10T02:36:09.551Z,3.20
2019-03-10T02:38:16.821Z,2.97
2019-03-10T02:40:25.197Z,2.40
2019-03-10T02:42:32.596Z,2.20
2019-03-10T02:44:39.870Z,2.40
2019-03-10T02:46:47.198Z,2.50
2019-03-10T02:48:54.536Z,2.30
2019-03-10T02:51:01.838Z,2.63
2019-03-10T02:53:09.163Z,1.77
2019-03-10T02:55:16.672Z,1.60
2019-03-10T02:57:23.981Z,1.80
2019-03-10T02:59:31.271Z,1.80
2019-03-10T03:01:38.545Z,1.70
2019-03-10T03:03:45.918Z,1.97
2019-03-10T03:05:53.298Z,1.80
2019-03-10T03:08:00.637Z,1.73
2019-03-10T03:10:09.668Z,1.60
2019-03-10T03:12:17.128Z,1.90
2019-03-10T03:14:24.488Z,2.03
2019-03-10T03:16:31.835Z,1.53
2019-03-10T03:18:40.173Z,1.93
2019-03-10T03:20:47.484Z,1.90
2019-03-10T03:22:54.902Z,1.80
2019-03-10T03:25:02.223Z,1.80
2019-03-10T03:27:09.578Z,2.10
2019-03-10T03:29:16.902Z,1.50
2019-03-10T03:31:24.285Z,1.50
2019-03-10T03:33:31.706Z,1.77
2019-03-10T03:35:55.715Z,1.60
2019-03-10T03:38:03.043Z,1.83
2019-03-10T03:40:10.310Z,1.63
2019-03-10T03:42:17.690Z,1.40
2019-03-10T03:44:25.044Z,1.70
2019-03-10T03:46:32.358Z,1.40
2019-03-10T03:48:39.743Z,1.30
2019-03-10T03:50:47.107Z,1.70
2019-03-10T03:52:54.384Z,1.67
2019-03-10T03:55:01.626Z,1.40
2019-03-10T03:57:08.988Z,1.60
2019-03-10T03:59:16.365Z,1.83
2019-03-10T04:01:27.274Z,1.53
2019-03-10T04:03:34.577Z,1.50
2019-03-10T04:05:41.851Z,1.73
2019-03-10T04:07:49.181Z,1.60
2019-03-10T04:09:56.460Z,1.77
2019-03-10T04:12:03.723Z,2.10
2019-03-10T04:14:10.994Z,1.80
2019-03-10T04:16:18.425Z,2.27
2019-03-10T04:18:25.646Z,2.73
2019-03-10T04:20:32.987Z,2.53
2019-03-10T04:22:40.317Z,2.43
2019-03-10T04:24:47.668Z,2.50
2019-03-10T04:26:55.077Z,2.90
2019-03-10T04:29:02.359Z,2.97
2019-03-10T04:31:09.665Z,2.90
2019-03-10T04:33:16.955Z,3.43
2019-03-10T04:35:24.164Z,3.27
2019-03-10T04:37:31.521Z,3.57
2019-03-10T04:39:38.820Z,3.77
2019-03-10T04:41:46.061Z,3.43
2019-03-10T04:43:53.365Z,3.87
2019-03-10T04:46:00.647Z,3.77
2019-03-10T04:48:07.983Z,3.33
2019-03-10T04:50:16.392Z,4.23
2019-03-10T04:52:24.040Z,3.20
2019-03-10T04:54:53.737Z,3.67
2019-03-10T04:57:09.937Z,3.30
2019-03-10T04:59:17.195Z,2.80
2019-03-10T05:01:24.486Z,3.03
2019-03-10T05:03:31.707Z,3.43
2019-03-10T05:05:39.046Z,3.43
2019-03-10T05:07:46.325Z,2.80
2019-03-10T05:09:53.647Z,2.93
2019-03-10T05:12:00.969Z,2.93
2019-03-10T05:14:08.268Z,3.50
2019-03-10T05:16:15.446Z,3.57
2019-03-10T05:18:22.827Z,2.87
2019-03-10T05:20:30.188Z,3.23
2019-03-10T05:22:37.562Z,2.10
2019-03-10T05:24:44.867Z,3.30
2019-03-10T05:26:52.193Z,2.63
2019-03-10T05:28:59.487Z,2.30
2019-03-10T05:31:07.711Z,2.07
2019-03-10T05:33:15.058Z,2.50
2019-03-10T05:35:22.360Z,3.00
2019-03-10T05:37:29.707Z,2.60
2019-03-10T05:39:37.034Z,2.53
2019-03-10T05:41:44.297Z,2.40
2019-03-10T05:43:51.593Z,2.60
2019-03-10T05:45:58.915Z,2.13
2019-03-10T05:48:06.235Z,2.33
2019-03-10T05:50:13.495Z,2.80
2019-03-10T05:52:20.827Z,2.87
2019-03-10T05:54:28.049Z,3.47
2019-03-10T05:56:35.366Z,3.17
2019-03-10T05:58:42.634Z,2.93
2019-03-10T06:00:49.893Z,2.47
2019-03-10T06:02:57.182Z,2.80
2019-03-10T06:05:06.043Z,2.97
2019-03-10T06:07:13.645Z,3.13
2019-03-10T06:09:20.943Z,2.87
2019-03-10T06:11:28.297Z,2.63
2019-03-10T06:13:35.646Z,3.13
2019-03-10T06:15:43.164Z,2.83
2019-03-10T06:17:50.477Z,2.63
2019-03-10T06:19:57.733Z,3.10
2019-03-10T06:22:05.116Z,4.10
2019-03-10T06:24:12.368Z,4.23
2019-03-10T06:26:20.610Z,4.37
2019-03-10T06:28:28.161Z,4.20
2019-03-10T06:30:36.505Z,3.80
2019-03-10T06:32:44.229Z,4.27
2019-03-10T06:34:51.601Z,6.13
2019-03-10T06:36:58.956Z,5.23
2019-03-10T06:39:07.745Z,4.30
2019-03-10T06:41:15.077Z,4.20
2019-03-10T06:43:22.439Z,5.10
2019-03-10T06:45:29.877Z,5.67
2019-03-10T06:47:37.227Z,4.50
2019-03-10T06:49:44.530Z,4.30
2019-03-10T06:51:51.929Z,3.80
2019-03-10T06:53:59.287Z,4.80
2019-03-10T06:56:07.614Z,3.73
2019-03-10T06:58:14.984Z,3.77
2019-03-10T07:00:22.320Z,3.83
2019-03-10T07:02:29.772Z,4.27
2019-03-10T07:04:37.194Z,3.10
2019-03-10T07:06:44.716Z,3.13
2019-03-10T07:08:52.054Z,3.83
2019-03-10T07:10:59.464Z,5.10
2019-03-10T07:13:07.109Z,3.33
2019-03-10T07:15:14.917Z,5.20
2019-03-10T07:17:22.356Z,4.00
2019-03-10T07:19:29.820Z,5.07
2019-03-10T07:21:37.536Z,3.70
2019-03-10T07:23:45.068Z,2.80
2019-03-10T07:26:09.204Z,3.27
2019-03-10T07:28:28.017Z,4.00
2019-03-10T07:30:49.517Z,3.33
2019-03-10T07:33:08.940Z,3.17
2019-03-10T07:35:41.012Z,3.47
2019-03-10T07:38:06.248Z,3.67
2019-03-10T07:40:31.218Z,3.53
2019-03-10T07:42:53.314Z,4.47
2019-03-10T07:45:21.467Z,2.97
2019-03-10T07:47:59.972Z,3.23
2019-03-10T07:50:22.893Z,3.33
2019-03-10T07:52:42.355Z,4.97
2019-03-10T07:55:24.208Z,3.83
2019-03-10T07:57:49.275Z,3.53
2019-03-10T08:00:25.301Z,3.53
2019-03-10T08:03:03.961Z,2.63
2019-03-10T08:05:29.227Z,3.27
2019-03-10T08:07:47.389Z,2.97
2019-03-10T08:10:19.873Z,3.77
2019-03-10T08:12:44.953Z,4.03
2019-03-10T08:15:10.034Z,3.00
2019-03-10T08:17:40.015Z,2.90
2019-03-10T08:19:58.595Z,2.53
2019-03-10T08:22:21.890Z,4.60
2019-03-10T08:24:47.452Z,3.67
2019-03-10T08:27:14.179Z,4.30
2019-03-10T08:29:36.169Z,5.20
2019-03-10T08:32:08.612Z,4.63
2019-03-10T08:34:50.401Z,4.53
2019-03-10T08:37:16.232Z,4.77
2019-03-10T08:39:41.381Z,4.20
2019-03-10T08:42:07.967Z,3.63
2019-03-10T08:44:40.805Z,3.33
2019-03-10T08:47:07.206Z,5.07
2019-03-10T08:49:44.768Z,4.53
2019-03-10T08:52:04.295Z,5.87
2019-03-10T08:54:23.586Z,8.70
2019-03-10T08:56:49.914Z,5.87
2019-03-10T08:59:16.261Z,4.57
2019-03-10T09:01:45.441Z,4.53
2019-03-10T09:04:10.405Z,5.57
2019-03-10T09:06:44.671Z,4.33
2019-03-10T09:09:02.288Z,5.00
2019-03-10T09:11:38.195Z,5.87
2019-03-10T09:14:07.154Z,6.10
2019-03-10T09:16:29.395Z,7.03
2019-03-10T09:19:03.914Z,13.70
2019-03-10T09:21:42.619Z,4.10
2019-03-10T09:24:14.835Z,4.50
2019-03-10T09:26:47.271Z,3.80
2019-03-10T09:29:12.261Z,5.17
2019-03-10T09:31:37.336Z,3.97
2019-03-10T09:33:54.623Z,4.60
2019-03-10T09:36:39.248Z,3.57
2019-03-10T09:39:20.992Z,4.20
2019-03-10T09:42:05.642Z,3.33
2019-03-10T09:44:38.721Z,3.77
2019-03-10T09:46:57.289Z,4.77
2019-03-10T09:49:29.498Z,7.13
2019-03-10T09:51:46.364Z,6.93
2019-03-10T09:54:16.108Z,6.50
2019-03-10T09:56:39.093Z,5.17
2019-03-10T09:59:05.258Z,6.57
2019-03-10T10:01:30.434Z,10.40
2019-03-10T10:04:05.485Z,7.73
2019-03-10T10:06:30.191Z,7.10
2019-03-10T10:08:45.468Z,10.37
2019-03-10T10:11:14.467Z,11.63
2019-03-10T10:13:46.964Z,8.17
2019-03-10T10:16:13.143Z,7.00
2019-03-10T10:18:39.841Z,7.83
2019-03-10T10:21:11.165Z,12.30
2019-03-10T10:23:43.689Z,24.43
2019-03-10T10:26:13.393Z,26.73
2019-03-10T10:28:38.035Z,30.70
2019-03-10T10:31:03.075Z,47.03
2019-03-10T10:33:42.283Z,59.43
2019-03-10T10:36:14.666Z,59.77
2019-03-10T10:38:43.678Z,56.90
2019-03-10T10:41:10.409Z,14.77
2019-03-10T10:43:45.636Z,11.73
2019-03-10T10:45:58.830Z,7.63
2019-03-10T10:48:21.233Z,7.23
2019-03-10T10:50:56.278Z,5.30
2019-03-10T10:53:26.175Z,5.13
2019-03-10T10:55:52.570Z,3.60
2019-03-10T10:58:10.514Z,4.90
2019-03-10T11:00:37.530Z,3.60
2019-03-10T11:03:03.387Z,3.73
2019-03-10T11:05:23.900Z,4.97
2019-03-10T11:07:48.727Z,4.17
2019-03-10T11:10:33.883Z,9.50
2019-03-10T11:12:58.704Z,9.00
2019-03-10T11:15:25.888Z,8.67
2019-03-10T11:17:55.126Z,5.13
2019-03-10T11:20:28.308Z,3.97
2019-03-10T11:22:41.529Z,2.33
2019-03-10T11:25:13.617Z,6.33
2019-03-10T11:27:46.007Z,4.67
2019-03-10T11:30:11.494Z,3.73
2019-03-10T11:32:27.870Z,3.10
2019-03-10T11:35:03.564Z,8.67
2019-03-10T11:37:28.365Z,3.77
2019-03-10T11:40:09.919Z,4.00
2019-03-10T11:42:43.885Z,9.27
2019-03-10T11:45:09.109Z,6.30
2019-03-10T11:47:29.021Z,4.70
2019-03-10T11:49:53.080Z,4.83
2019-03-10T11:52:17.645Z,5.57
2019-03-10T11:55:02.430Z,3.73
2019-03-10T11:57:27.763Z,7.40
2019-03-10T11:59:49.444Z,3.27
2019-03-10T12:02:19.301Z,3.37
2019-03-10T12:04:45.659Z,5.13
2019-03-10T12:07:15.042Z,4.73
2019-03-10T12:09:22.324Z,6.77
2019-03-10T12:11:30.084Z,4.43
2019-03-10T12:13:37.785Z,4.87
2019-03-10T12:15:45.402Z,5.07
2019-03-10T12:17:53.235Z,4.20
2019-03-10T12:20:00.846Z,4.50
2019-03-10T12:22:08.535Z,6.27
2019-03-10T12:24:16.165Z,55.57
2019-03-10T12:26:23.785Z,57.30
2019-03-10T12:28:31.333Z,56.93
2019-03-10T12:30:38.818Z,56.97
2019-03-10T12:32:46.329Z,57.13
2019-03-10T12:34:53.923Z,57.97
2019-03-10T12:37:01.377Z,58.70
2019-03-10T12:39:11.091Z,58.97
2019-03-10T12:41:18.528Z,62.07
2019-03-10T12:43:25.972Z,65.43
2019-03-10T12:45:33.726Z,43.97
2019-03-10T12:47:41.205Z,9.40
2019-03-10T12:49:49.040Z,56.80
2019-03-10T12:51:56.484Z,36.47
2019-03-10T12:54:03.948Z,6.70
2019-03-10T12:56:11.492Z,17.83
2019-03-10T12:58:19.129Z,16.80
2019-03-10T13:00:26.625Z,13.97
2019-03-10T13:02:34.982Z,7.87
2019-03-10T13:04:42.681Z,7.67
2019-03-10T13:06:50.413Z,9.37
2019-03-10T13:08:58.101Z,5.73
2019-03-10T13:11:07.224Z,13.07
2019-03-10T13:13:15.864Z,22.73
2019-03-10T13:15:24.325Z,7.63
2019-03-10T13:17:32.266Z,17.27
2019-03-10T13:19:40.449Z,11.73
2019-03-10T13:21:48.057Z,8.80
2019-03-10T13:23:55.660Z,9.87
2019-03-10T13:26:03.469Z,10.63
2019-03-10T13:28:11.547Z,8.47
2019-03-10T13:30:19.821Z,25.37
2019-03-10T13:32:27.509Z,41.00
2019-03-10T13:34:35.767Z,50.80
2019-03-10T13:36:43.493Z,6.93
2019-03-10T13:38:51.252Z,10.10
2019-03-10T13:40:59.109Z,11.23
2019-03-10T13:43:07.191Z,9.87
2019-03-10T13:45:15.441Z,12.60
2019-03-10T13:47:23.074Z,11.60
2019-03-10T13:49:32.705Z,9.73
2019-03-10T13:51:43.021Z,21.60
2019-03-10T13:53:50.956Z,9.87
2019-03-10T13:55:58.606Z,8.77
2019-03-10T13:58:06.691Z,10.47
2019-03-10T14:00:17.610Z,9.73
2019-03-10T14:02:25.235Z,12.23
2019-03-10T14:04:33.798Z,12.37
2019-03-10T14:06:42.163Z,14.13
2019-03-10T14:08:50.157Z,18.07
2019-03-10T14:10:57.897Z,16.97
2019-03-10T14:13:05.424Z,10.40
2019-03-10T14:15:13.478Z,8.40
2019-03-10T14:17:21.287Z,6.20
2019-03-10T14:19:28.671Z,9.23
2019-03-10T14:21:36.314Z,8.93
2019-03-10T14:23:44.679Z,8.20
2019-03-10T14:25:52.643Z,11.80
2019-03-10T14:28:00.601Z,9.83
2019-03-10T14:30:08.997Z,9.13
2019-03-10T14:32:16.801Z,12.97
2019-03-10T14:34:24.413Z,14.03
2019-03-10T14:36:32.115Z,8.53
2019-03-10T14:38:39.919Z,8.37
2019-03-10T14:40:50.624Z,7.77
2019-03-10T14:42:58.436Z,5.97
2019-03-10T14:45:07.981Z,9.30
2019-03-10T14:47:15.664Z,9.43
2019-03-10T14:49:23.805Z,11.93
2019-03-10T14:51:31.484Z,13.87
2019-03-10T14:53:39.711Z,13.43
2019-03-10T14:55:48.159Z,9.27
2019-03-10T14:57:55.857Z,14.73
2019-03-10T15:00:03.851Z,25.77
2019-03-10T15:02:11.540Z,18.50
2019-03-10T15:04:19.634Z,35.90
2019-03-10T15:06:27.295Z,44.77
2019-03-10T15:08:34.881Z,57.27
2019-03-10T15:10:42.682Z,52.80
2019-03-10T15:12:50.375Z,30.23
2019-03-10T15:14:58.070Z,26.40
2019-03-10T15:17:06.004Z,24.67
2019-03-10T15:19:13.732Z,23.53
2019-03-10T15:21:22.058Z,23.70
2019-03-10T15:23:29.990Z,8.97
2019-03-10T15:25:37.856Z,43.27
2019-03-10T15:27:45.806Z,62.47
2019-03-10T15:29:54.025Z,61.40
2019-03-10T15:32:01.791Z,59.30
2019-03-10T15:34:10.006Z,65.90
2019-03-10T15:36:20.577Z,11.73
2019-03-10T15:38:27.336Z,61.97
2019-03-10T15:40:35.039Z,45.27
2019-03-10T15:42:42.733Z,74.87
2019-03-10T15:44:50.470Z,81.03
2019-03-10T15:46:58.242Z,87.10
2019-03-10T15:49:06.038Z,90.70
2019-03-10T15:51:14.626Z,91.97
2019-03-10T15:53:22.589Z,78.87
2019-03-10T15:55:30.696Z,15.80
2019-03-10T15:57:49.314Z,12.60
2019-03-10T15:59:48.555Z,11.90
2019-03-10T16:01:56.842Z,9.13
2019-03-10T16:04:20.862Z,9.30
2019-03-10T16:06:28.813Z,8.60
2019-03-10T16:08:36.642Z,7.67
2019-03-10T16:10:45.109Z,4.50
2019-03-10T16:12:53.334Z,10.47
2019-03-10T16:15:01.153Z,5.77
2019-03-10T16:17:08.538Z,7.37
2019-03-10T16:19:16.604Z,8.03
2019-03-10T16:21:24.326Z,21.57
2019-03-10T16:23:31.903Z,15.50
2019-03-10T16:25:39.570Z,9.20
2019-03-10T16:27:49.665Z,3.77
2019-03-10T16:29:56.309Z,4.47
2019-03-10T16:32:03.805Z,4.90
2019-03-10T16:34:12.008Z,8.97
2019-03-10T16:36:19.944Z,6.63
2019-03-10T16:38:27.373Z,6.53
2019-03-10T16:40:35.323Z,5.23
2019-03-10T16:42:43.281Z,4.50
2019-03-10T16:44:50.989Z,4.53
2019-03-10T16:46:58.460Z,5.37
2019-03-10T16:49:06.423Z,5.97
2019-03-10T16:51:13.947Z,5.57
2019-03-10T16:53:22.991Z,5.40
2019-03-10T16:55:33.493Z,5.87
2019-03-10T16:57:42.376Z,5.30
2019-03-10T16:59:52.335Z,5.53
2019-03-10T17:02:04.057Z,6.53
2019-03-10T17:04:16.286Z,8.87
2019-03-10T17:06:24.961Z,15.80
2019-03-10T17:08:34.671Z,31.87
2019-03-10T17:10:42.869Z,32.47
2019-03-10T17:12:51.009Z,30.23
2019-03-10T17:14:59.073Z,34.67
2019-03-10T17:17:06.945Z,33.13
2019-03-10T17:19:14.774Z,33.80
2019-03-10T17:21:22.404Z,26.13
2019-03-10T17:23:30.106Z,38.77
2019-03-10T17:25:37.754Z,29.93
2019-03-10T17:27:46.147Z,28.37
2019-03-10T17:29:54.026Z,29.33
2019-03-10T17:32:01.888Z,26.93
2019-03-10T17:34:09.597Z,32.47
2019-03-10T17:36:17.146Z,33.10
2019-03-10T17:38:24.714Z,36.53
2019-03-10T17:40:32.286Z,29.77
2019-03-10T17:42:40.158Z,28.63
2019-03-10T17:44:47.591Z,28.67
2019-03-10T17:46:55.151Z,20.70
2019-03-10T17:49:02.736Z,26.37
2019-03-10T17:51:10.594Z,24.47
2019-03-10T17:53:18.263Z,21.13
2019-03-10T17:55:27.426Z,26.73
2019-03-10T17:57:35.129Z,12.33
2019-03-10T17:59:42.914Z,13.33
2019-03-10T18:01:50.734Z,17.17
2019-03-10T18:03:58.234Z,15.20
2019-03-10T18:06:05.797Z,10.83
2019-03-10T18:08:13.316Z,13.43
2019-03-10T18:10:20.907Z,12.20
2019-03-10T18:12:28.466Z,12.37
2019-03-10T18:14:36.079Z,12.97
2019-03-10T18:16:44.069Z,10.10
2019-03-10T18:18:51.698Z,8.73
2019-03-10T18:20:59.274Z,7.43
2019-03-10T18:23:07.027Z,7.67
2019-03-10T18:25:15.366Z,9.10
2019-03-10T18:27:23.068Z,8.90
2019-03-10T18:29:30.540Z,9.63
2019-03-10T18:31:38.073Z,9.00
2019-03-10T18:33:45.691Z,8.53
2019-03-10T18:35:53.464Z,9.00
2019-03-10T18:38:01.182Z,9.90
2019-03-10T18:40:13.368Z,8.57
2019-03-10T18:42:21.367Z,13.40
2019-03-10T18:44:29.161Z,15.13
2019-03-10T18:46:37.532Z,13.77
2019-03-10T18:48:45.364Z,14.47
2019-03-10T18:50:52.998Z,13.57
2019-03-10T18:53:02.903Z,15.50
2019-03-10T18:55:12.047Z,14.90
2019-03-10T18:57:19.710Z,15.80
2019-03-10T18:59:27.251Z,18.53
2019-03-10T19:01:34.867Z,18.53
2019-03-10T19:03:42.424Z,19.47
2019-03-10T19:05:50.146Z,17.17
2019-03-10T19:07:58.649Z,15.07
2019-03-10T19:10:06.489Z,16.23
2019-03-10T19:12:14.188Z,17.30
2019-03-10T19:16:19.676Z,13.73
2019-03-10T19:18:27.947Z,14.40
2019-03-10T19:20:35.869Z,17.47
2019-03-10T19:22:44.102Z,17.10
2019-03-10T19:24:52.348Z,16.30
2019-03-10T19:26:59.869Z,10.70
2019-03-10T19:29:08.150Z,13.40
2019-03-10T19:31:15.924Z,13.73
2019-03-10T19:33:23.533Z,16.30
2019-03-10T19:35:31.320Z,16.93
2019-03-10T19:37:39.767Z,16.83
2019-03-10T19:39:48.778Z,15.07
2019-03-10T19:41:56.441Z,16.17
2019-03-10T19:44:04.310Z,17.13
2019-03-10T19:46:12.391Z,19.87
2019-03-10T19:48:20.164Z,19.97
2019-03-10T19:50:28.171Z,20.90
2019-03-10T19:52:36.019Z,21.00
2019-03-10T19:54:43.529Z,19.63
2019-03-10T19:56:52.560Z,21.80
2019-03-10T19:59:00.498Z,26.40
2019-03-10T20:01:08.925Z,27.30
2019-03-10T20:03:16.739Z,20.83
2019-03-10T20:05:25.413Z,20.23
2019-03-10T20:07:33.471Z,20.30
2019-03-10T20:09:41.879Z,18.20
2019-03-10T20:11:49.470Z,18.67
2019-03-10T20:13:57.301Z,18.27
2019-03-10T20:16:04.893Z,17.07
2019-03-10T20:18:12.567Z,17.30
2019-03-10T20:20:20.154Z,16.17
2019-03-10T20:22:27.730Z,14.80
2019-03-10T20:24:35.567Z,15.67
2019-03-10T20:26:43.220Z,22.10
2019-03-10T20:28:50.750Z,17.87
2019-03-10T20:30:58.488Z,15.17
2019-03-10T20:33:06.105Z,14.83
2019-03-10T20:35:13.614Z,15.17
2019-03-10T20:37:21.300Z,13.17
2019-03-10T20:39:29.165Z,14.83
2019-03-10T20:41:37.001Z,14.00
2019-03-10T20:43:44.641Z,13.60
2019-03-10T20:45:52.293Z,13.00
2019-03-10T20:48:00.165Z,12.43
2019-03-10T20:50:09.218Z,12.60
2019-03-10T20:52:16.930Z,12.53
2019-03-10T20:54:24.498Z,15.70
2019-03-10T20:56:32.139Z,17.63
2019-03-10T20:58:39.550Z,19.90
2019-03-10T21:00:47.043Z,15.57
2019-03-10T21:02:55.494Z,29.37
2019-03-10T21:05:02.926Z,18.87
2019-03-10T21:07:10.505Z,14.33
2019-03-10T21:09:18.010Z,13.17
2019-03-10T21:11:25.458Z,14.87
2019-03-10T21:13:32.909Z,13.83
2019-03-10T21:15:40.251Z,20.77
2019-03-10T21:17:48.018Z,26.47
2019-03-10T21:19:55.393Z,20.37
2019-03-10T21:22:02.994Z,30.90
2019-03-10T21:24:11.367Z,38.93
2019-03-10T21:26:18.909Z,34.87
2019-03-10T21:28:26.367Z,31.53
2019-03-10T21:30:34.441Z,23.17
2019-03-10T21:32:42.022Z,25.37
2019-03-10T21:34:49.847Z,18.93
2019-03-10T21:36:57.729Z,19.30
2019-03-10T21:39:07.153Z,15.03
2019-03-10T21:41:14.697Z,16.00
2019-03-10T21:43:22.245Z,17.40
2019-03-10T21:45:30.010Z,18.83
2019-03-10T21:47:37.616Z,18.70
2019-03-10T21:49:45.065Z,16.03
2019-03-10T21:51:53.667Z,17.57
2019-03-10T21:54:01.164Z,19.67
2019-03-10T21:56:08.584Z,14.27
2019-03-10T21:58:16.029Z,15.47
2019-03-10T22:00:23.781Z,19.10
2019-03-10T22:02:31.128Z,15.43
2019-03-10T22:04:38.555Z,17.33
2019-03-10T22:06:46.109Z,17.37
2019-03-10T22:08:53.648Z,16.53
2019-03-10T22:11:01.058Z,17.90
2019-03-10T22:13:08.477Z,16.13
2019-03-10T22:15:16.148Z,20.00
2019-03-10T22:17:23.731Z,17.97
2019-03-10T22:19:31.222Z,20.23
2019-03-10T22:21:38.673Z,18.73
2019-03-10T22:23:46.273Z,32.47
2019-03-10T22:25:54.274Z,31.13
2019-03-10T22:28:01.689Z,21.73
2019-03-10T22:30:11.370Z,19.57
2019-03-10T22:32:18.900Z,20.57
2019-03-10T22:34:26.335Z,19.17
2019-03-10T22:36:33.764Z,16.20
2019-03-10T22:38:41.180Z,16.80
2019-03-10T22:40:48.535Z,20.00
2019-03-10T22:42:55.974Z,23.87
2019-03-10T22:45:03.396Z,18.27
2019-03-10T22:47:11.023Z,18.10
2019-03-10T22:49:18.538Z,21.30
2019-03-10T22:51:26.052Z,20.83
2019-03-10T22:53:33.504Z,18.73
2019-03-10T22:55:41.150Z,16.87
2019-03-10T22:57:48.690Z,17.00
2019-03-10T22:59:56.076Z,17.60
2019-03-10T23:02:03.502Z,17.80
2019-03-10T23:04:11.132Z,17.97
2019-03-10T23:06:18.537Z,17.57
2019-03-10T23:08:25.934Z,18.37
2019-03-10T23:10:33.383Z,18.43
2019-03-10T23:12:40.790Z,16.43
2019-03-10T23:14:48.179Z,16.97
2019-03-10T23:16:55.535Z,15.23
2019-03-10T23:19:02.811Z,15.17
2019-03-10T23:21:10.288Z,14.13
2019-03-10T23:23:17.662Z,14.60
2019-03-10T23:25:24.984Z,15.47
2019-03-10T23:27:32.419Z,13.83
2019-03-10T23:29:39.672Z,14.17
2019-03-10T23:31:47.044Z,12.30
2019-03-10T23:33:54.451Z,12.67
2019-03-10T23:36:01.779Z,10.23
2019-03-10T23:38:09.274Z,10.27
2019-03-10T23:40:16.781Z,11.83
2019-03-10T23:42:24.178Z,11.07
2019-03-10T23:44:31.496Z,10.10
2019-03-10T23:46:38.943Z,10.03
2019-03-10T23:48:46.242Z,10.40
2019-03-10T23:50:53.643Z,10.07
2019-03-10T23:53:00.942Z,9.13
2019-03-10T23:55:08.719Z,11.00
2019-03-10T23:57:16.064Z,8.87
2019-03-10T23:59:23.391Z,10.20
